createdAt,value
2022-10-23T00:01:45.831Z,100147.63
2022-10-23T00:04:16.508Z,100149.59
2022-10-23T00:06:45.879Z,100153.20
2022-10-23T00:09:19.073Z,100153.27
2022-10-23T00:11:49.158Z,100160.39
2022-10-23T00:14:22.435Z,100163.66
2022-10-23T00:16:52.260Z,100163.48
2022-10-23T00:19:21.176Z,100163.77
2022-10-23T00:21:50.017Z,100165.20
2022-10-23T00:24:19.063Z,100166.10
2022-10-23T00:26:50.118Z,100166.63
2022-10-23T00:29:19.034Z,100165.34
2022-10-23T00:31:50.926Z,100167.92
2022-10-23T00:34:20.834Z,100162.46
2022-10-23T00:36:49.673Z,100166.91
2022-10-23T00:39:18.808Z,100163.33
2022-10-23T00:41:48.179Z,100169.64
2022-10-23T00:44:23.507Z,100165.86
2022-10-23T00:46:52.494Z,100163.14
2022-10-23T00:49:23.666Z,100171.20
2022-10-23T00:51:54.569Z,100174.96
2022-10-23T00:54:26.077Z,100173.70
2022-10-23T00:56:57.033Z,100177.12
2022-10-23T00:59:26.081Z,100176.63
2022-10-23T05:02:56.929Z,100274.13
2022-10-23T05:05:31.605Z,100272.35
2022-10-23T05:08:27.802Z,100273.04
2022-10-23T05:11:09.220Z,100270.60
2022-10-23T05:13:45.287Z,100268.40
2022-10-23T05:16:22.251Z,100269.29
2022-10-23T05:18:50.624Z,100266.08
2022-10-23T05:21:21.901Z,100265.37
2022-10-23T05:23:53.592Z,100265.17
2022-10-23T05:26:23.069Z,100265.28
2022-10-23T05:28:54.025Z,100266.70
2022-10-23T05:31:24.975Z,100273.98
2022-10-23T05:33:57.318Z,100275.09
2022-10-23T05:36:27.322Z,100276.38
2022-10-23T05:38:59.488Z,100275.80
2022-10-23T05:41:28.275Z,100271.77
2022-10-23T05:43:59.644Z,100275.14
2022-10-23T05:46:46.970Z,100274.09
2022-10-23T05:49:15.449Z,100274.73
2022-10-23T05:52:13.074Z,100273.80
2022-10-23T05:54:59.978Z,100273.67
2022-10-23T05:58:03.066Z,100273.18
2022-10-23T06:00:50.567Z,100267.41
2022-10-23T06:03:41.568Z,100265.94
2022-10-23T06:06:12.678Z,100262.31
2022-10-23T06:08:54.267Z,100261.95
2022-10-23T06:11:36.315Z,100263.64
2022-10-23T06:14:09.189Z,100265.70
2022-10-23T06:16:38.825Z,100260.98
2022-10-23T06:19:12.212Z,100270.51
2022-10-23T06:21:41.585Z,100268.85
2022-10-23T06:24:10.219Z,100269.36
2022-10-23T06:26:46.331Z,100265.92
2022-10-23T06:29:23.227Z,100270.17
2022-10-23T06:31:52.842Z,100272.10
2022-10-23T06:34:22.026Z,100276.73
2022-10-23T06:36:50.706Z,100280.80
2022-10-23T06:39:52.541Z,100280.95
2022-10-23T06:42:27.906Z,100285.89
2022-10-23T06:44:56.647Z,100285.11
2022-10-23T06:48:02.433Z,100285.45
2022-10-23T06:50:50.431Z,100281.83
2022-10-23T06:53:25.267Z,100276.10
2022-10-23T06:56:06.094Z,100273.92
2022-10-23T06:58:40.109Z,100281.66
2022-10-23T07:01:17.094Z,100288.59
2022-10-23T07:03:48.566Z,100287.38
2022-10-23T07:06:19.073Z,100290.64
2022-10-23T07:08:48.096Z,100291.09
2022-10-23T07:11:45.910Z,100292.89
2022-10-23T07:14:15.389Z,100296.85
2022-10-23T07:16:44.800Z,100296.15
2022-10-23T07:19:15.305Z,100291.22
2022-10-23T07:21:56.167Z,100289.09
2022-10-23T07:24:44.803Z,100282.75
2022-10-23T07:27:22.228Z,100279.12
2022-10-23T07:29:57.076Z,100285.92
2022-10-23T07:32:28.885Z,100290.02
2022-10-23T07:35:17.669Z,100288.98
2022-10-23T07:37:59.888Z,100282.75
2022-10-23T07:40:31.657Z,100283.88
2022-10-23T07:43:00.210Z,100279.08
2022-10-23T07:45:28.478Z,100283.71
2022-10-23T07:47:57.135Z,100280.50
2022-10-23T07:50:28.151Z,100286.05
2022-10-23T07:52:58.925Z,100290.59
2022-10-23T07:55:36.850Z,100286.13
2022-10-23T07:58:10.821Z,100288.38
2022-10-23T08:00:45.487Z,100291.66
2022-10-23T08:03:21.801Z,100288.23
2022-10-23T08:05:50.607Z,100290.94
2022-10-23T08:08:19.030Z,100298.77
2022-10-23T08:10:49.759Z,100299.02
2022-10-23T08:13:24.015Z,100297.39
2022-10-23T08:16:00.794Z,100294.88
2022-10-23T08:18:50.138Z,100293.34
2022-10-23T08:21:19.582Z,100291.53
2022-10-23T08:23:48.258Z,100299.49
2022-10-23T08:26:16.519Z,100303.73
2022-10-23T08:28:45.310Z,100305.09
2022-10-23T08:31:17.182Z,100301.61
2022-10-23T08:33:59.575Z,100302.47
2022-10-23T08:36:29.953Z,100302.45
2022-10-23T08:38:59.387Z,100304.69
2022-10-23T08:41:33.571Z,100302.36
2022-10-23T08:44:21.034Z,100306.33
2022-10-23T08:46:56.795Z,100304.55
2022-10-23T08:50:06.508Z,100304.57
2022-10-23T08:52:35.129Z,100306.48
2022-10-23T08:55:20.152Z,100312.13
2022-10-23T08:57:55.073Z,100305.04
2022-10-23T09:00:23.502Z,100304.86
2022-10-23T09:02:52.976Z,100304.41
2022-10-23T09:05:27.301Z,100303.39
2022-10-23T09:08:01.759Z,100307.40
2022-10-23T09:10:57.769Z,100312.83
2022-10-23T09:13:26.656Z,100317.37
2022-10-23T09:16:00.888Z,100322.41
2022-10-23T09:18:31.291Z,100330.55
2022-10-23T09:21:00.787Z,100332.23
2022-10-23T09:23:29.135Z,100333.33
2022-10-23T09:25:57.937Z,100336.21
2022-10-23T09:28:28.967Z,100335.83
2022-10-23T09:31:12.092Z,100343.35
2022-10-23T09:33:40.955Z,100339.85
2022-10-23T09:36:09.726Z,100342.60
2022-10-23T09:38:40.127Z,100340.10
2022-10-23T09:41:14.695Z,100344.54
2022-10-23T09:43:43.808Z,100350.37
2022-10-23T09:46:12.623Z,100351.30
2022-10-23T09:48:45.659Z,100347.41
2022-10-23T09:51:18.846Z,100345.02
2022-10-23T09:54:01.369Z,100344.23
2022-10-23T09:56:57.029Z,100341.52
2022-10-23T09:59:28.690Z,100345.88
2022-10-23T10:01:59.115Z,100347.29
2022-10-23T10:04:51.472Z,100344.42
2022-10-23T10:07:21.581Z,100341.79
2022-10-23T10:09:51.229Z,100341.31
2022-10-23T10:12:53.162Z,100339.29
2022-10-23T10:15:41.317Z,100330.99
2022-10-23T10:18:17.931Z,100324.67
2022-10-23T10:21:05.325Z,100322.96
2022-10-23T10:23:46.102Z,100322.80
2022-10-23T10:26:15.002Z,100323.38
2022-10-23T10:29:02.615Z,100325.27
2022-10-23T10:31:50.766Z,100326.83
2022-10-23T10:34:35.068Z,100334.06
2022-10-23T10:37:12.631Z,100332.67
2022-10-23T10:39:44.462Z,100329.88
2022-10-23T10:42:16.970Z,100332.52
2022-10-23T10:45:19.404Z,100329.78
2022-10-23T10:48:06.812Z,100328.69
2022-10-23T10:51:19.476Z,100329.02
2022-10-23T10:53:51.350Z,100330.59
2022-10-23T10:56:21.083Z,100325.44
2022-10-23T10:58:51.775Z,100324.77
2022-10-23T11:01:26.933Z,100326.77
2022-10-23T11:04:00.176Z,100321.40
2022-10-23T11:06:31.173Z,100320.18
2022-10-23T11:09:19.424Z,100326.32
2022-10-23T11:11:49.654Z,100326.94
2022-10-23T11:14:25.325Z,100325.91
2022-10-23T11:16:58.222Z,100325.27
2022-10-23T11:19:26.655Z,100324.73
2022-10-23T11:22:00.820Z,100329.77
2022-10-23T11:24:45.307Z,100328.90
2022-10-23T11:27:19.652Z,100331.23
2022-10-23T11:29:52.001Z,100330.77
2022-10-23T11:32:23.382Z,100328.77
2022-10-23T11:34:52.215Z,100330.41
2022-10-23T11:37:21.548Z,100332.60
2022-10-23T11:39:59.342Z,100335.19
2022-10-23T11:42:32.695Z,100337.17
2022-10-23T11:45:01.090Z,100333.89
2022-10-23T11:47:39.725Z,100331.67
2022-10-23T11:50:08.751Z,100332.52
2022-10-23T11:52:45.636Z,100330.72
2022-10-23T11:55:21.090Z,100332.02
2022-10-23T11:58:04.874Z,100331.59
2022-10-23T12:00:40.960Z,100328.80
2022-10-23T12:03:19.023Z,100327.80
2022-10-23T12:05:47.981Z,100332.68
2022-10-23T12:11:27.973Z,100325.89
2022-10-23T12:13:56.681Z,100322.27
2022-10-23T12:16:34.887Z,100322.45
2022-10-23T12:19:18.281Z,100321.23
2022-10-23T12:21:47.558Z,100320.77
2022-10-23T12:24:15.968Z,100319.07
2022-10-23T12:26:54.574Z,100319.25
2022-10-23T12:29:32.093Z,100322.43
2022-10-23T12:32:04.016Z,100324.19
2022-10-23T12:34:32.786Z,100321.80
2022-10-23T12:37:19.948Z,100320.71
2022-10-23T12:39:53.430Z,100318.15
2022-10-23T12:42:27.169Z,100318.16
2022-10-23T12:45:03.917Z,100314.55
2022-10-23T12:47:33.619Z,100316.89
2022-10-23T12:50:02.060Z,100319.02
2022-10-23T12:52:34.036Z,100316.48
2022-10-23T12:55:12.490Z,100320.11
2022-10-23T12:57:43.341Z,100320.74
2022-10-23T13:00:17.423Z,100316.45
2022-10-23T13:02:47.036Z,100317.83
2022-10-23T13:05:18.712Z,100318.27
2022-10-23T13:07:48.552Z,100321.52
2022-10-23T13:10:21.881Z,100323.30
2022-10-23T13:13:08.037Z,100321.51
2022-10-23T13:15:40.692Z,100320.76
2022-10-23T13:18:10.807Z,100322.02
2022-10-23T13:20:41.923Z,100324.85
2022-10-23T13:23:10.082Z,100322.88
2022-10-23T13:25:39.639Z,100323.39
2022-10-23T13:28:07.886Z,100322.00
2022-10-23T13:30:43.032Z,100322.71
2022-10-23T13:33:24.830Z,100321.22
2022-10-23T13:36:01.124Z,100316.55
2022-10-23T13:38:31.676Z,100316.77
2022-10-23T13:41:01.543Z,100319.87
2022-10-23T13:43:31.245Z,100318.49
2022-10-23T13:46:01.146Z,100318.73
2022-10-23T13:48:30.108Z,100321.98
2022-10-23T13:51:07.035Z,100322.83
2022-10-23T13:53:35.359Z,100321.91
2022-10-23T13:56:04.197Z,100323.11
2022-10-23T13:58:32.575Z,100325.51
2022-10-23T14:01:01.269Z,100320.50
2022-10-23T14:03:30.250Z,100316.81
2022-10-23T14:05:58.647Z,100313.10
2022-10-23T14:08:27.535Z,100313.87
2022-10-23T14:10:56.320Z,100316.55
2022-10-23T14:13:24.705Z,100313.91
2022-10-23T14:15:56.676Z,100312.14
2022-10-23T14:18:26.148Z,100313.39
2022-10-23T14:20:54.409Z,100309.52
2022-10-23T14:23:24.827Z,100310.70
2022-10-23T14:25:53.199Z,100309.16
2022-10-23T14:28:22.238Z,100309.73
2022-10-23T14:30:51.325Z,100310.21
2022-10-23T14:33:20.310Z,100309.16
2022-10-23T14:35:51.930Z,100305.43
2022-10-23T14:38:20.335Z,100310.64
2022-10-23T14:40:49.169Z,100305.95
2022-10-23T14:43:18.137Z,100312.58
2022-10-23T14:45:47.176Z,100313.55
2022-10-23T14:48:16.490Z,100311.66
2022-10-23T14:50:46.960Z,100312.54
2022-10-23T14:53:15.850Z,100307.05
2022-10-23T14:55:45.137Z,100304.83
2022-10-23T14:58:13.488Z,100299.17
2022-10-23T15:00:41.858Z,100296.02
2022-10-23T15:03:10.773Z,100293.82
2022-10-23T15:05:41.933Z,100292.27
2022-10-23T15:08:10.318Z,100289.09
2022-10-23T15:10:39.551Z,100287.05
2022-10-23T15:13:08.467Z,100288.55
2022-10-23T15:15:36.684Z,100286.05
2022-10-23T15:18:06.076Z,100284.74
2022-10-23T15:20:34.978Z,100285.91
2022-10-23T15:23:04.277Z,100292.52
2022-10-23T15:25:33.476Z,100295.48
2022-10-23T15:28:02.557Z,100295.27
2022-10-23T15:30:31.628Z,100295.60
2022-10-23T15:33:00.575Z,100295.16
2022-10-23T15:35:29.762Z,100295.92
2022-10-23T15:37:58.802Z,100298.91
2022-10-23T15:40:28.100Z,100298.43
2022-10-23T15:42:57.818Z,100294.33
2022-10-23T15:45:29.129Z,100287.79
2022-10-23T15:48:01.518Z,100287.41
2022-10-23T15:50:31.531Z,100286.98
2022-10-23T15:53:18.825Z,100288.59
2022-10-23T15:56:25.106Z,100293.33
2022-10-23T15:58:54.281Z,100293.90
2022-10-23T16:01:23.441Z,100297.88
2022-10-23T16:03:52.882Z,100300.50
2022-10-23T16:06:22.472Z,100302.02
2022-10-23T16:08:51.682Z,100305.42
2022-10-23T16:11:25.255Z,100309.63
2022-10-23T16:13:56.728Z,100306.75
2022-10-23T16:16:26.626Z,100306.13
2022-10-23T16:18:58.221Z,100305.92
2022-10-23T16:21:28.702Z,100309.50
2022-10-23T16:23:59.545Z,100313.40
2022-10-23T16:26:29.311Z,100317.75
2022-10-23T16:29:00.076Z,100324.36
2022-10-23T16:31:29.914Z,100326.21
2022-10-23T16:34:00.067Z,100322.31
2022-10-23T16:36:30.352Z,100327.42
2022-10-23T16:39:25.333Z,100326.94
2022-10-23T16:42:13.236Z,100321.90
2022-10-23T16:44:58.727Z,100320.91
2022-10-23T16:47:28.111Z,100316.63
2022-10-23T16:49:57.577Z,100312.27
2022-10-23T16:52:27.413Z,100311.01
2022-10-23T16:54:57.104Z,100316.42
2022-10-23T16:57:28.708Z,100313.95
2022-10-23T16:59:58.302Z,100312.85
2022-10-23T17:02:26.984Z,100309.05
2022-10-23T17:04:55.712Z,100309.57
2022-10-23T17:07:24.720Z,100309.66
2022-10-23T17:09:55.725Z,100311.59
2022-10-23T17:12:25.922Z,100309.70
2022-10-23T17:14:54.796Z,100307.67
2022-10-23T17:17:23.989Z,100313.54
2022-10-23T17:19:53.740Z,100316.23
2022-10-23T17:22:23.506Z,100315.58
2022-10-23T17:24:53.927Z,100313.98
2022-10-23T17:27:22.739Z,100320.11
2022-10-23T17:29:51.259Z,100321.83
2022-10-23T17:34:57.612Z,100323.54
2022-10-23T17:37:26.102Z,100325.98
2022-10-23T17:39:56.368Z,100324.73
2022-10-23T17:42:25.765Z,100326.41
2022-10-23T17:44:54.090Z,100323.75
2022-10-23T17:47:22.566Z,100324.06
2022-10-23T17:49:51.176Z,100323.27
2022-10-23T17:52:19.673Z,100324.58
2022-10-23T17:54:51.676Z,100327.77
2022-10-23T17:57:20.055Z,100330.27
2022-10-23T17:59:48.499Z,100327.14
2022-10-23T18:02:16.857Z,100325.95
2022-10-23T18:04:45.700Z,100326.47
2022-10-23T18:07:15.322Z,100326.36
2022-10-23T18:09:44.896Z,100326.40
2022-10-23T18:12:14.524Z,100326.00
2022-10-23T18:14:43.863Z,100324.58
2022-10-23T18:17:12.893Z,100320.52
2022-10-23T18:19:41.353Z,100317.64
2022-10-23T18:22:09.827Z,100317.90
2022-10-23T18:24:38.446Z,100312.02
2022-10-23T18:27:07.576Z,100317.19
2022-10-23T18:29:36.075Z,100319.40
2022-10-23T18:32:04.799Z,100319.48
2022-10-23T18:34:33.355Z,100318.02
2022-10-23T18:37:01.715Z,100314.94
2022-10-23T18:39:30.459Z,100314.51
2022-10-23T18:41:58.945Z,100311.44
2022-10-23T18:44:52.142Z,100313.85
2022-10-23T18:47:22.798Z,100313.13
2022-10-23T18:49:54.978Z,100324.99
2022-10-23T18:52:27.741Z,100325.84
2022-10-23T18:54:57.837Z,100326.23
2022-10-23T18:57:30.850Z,100323.70
2022-10-23T19:00:05.789Z,100324.77
2022-10-23T19:02:36.615Z,100319.90
2022-10-23T19:05:08.007Z,100319.70
2022-10-23T19:07:36.876Z,100318.26
2022-10-23T19:10:07.253Z,100319.86
2022-10-23T19:12:36.488Z,100314.77
2022-10-23T19:15:05.507Z,100318.73
2022-10-23T19:17:34.858Z,100315.14
2022-10-23T19:20:07.119Z,100314.89
2022-10-23T19:22:37.354Z,100315.10
2022-10-23T19:25:11.658Z,100314.83
2022-10-23T19:27:40.466Z,100311.21
2022-10-23T19:30:15.527Z,100302.65
2022-10-23T19:32:46.646Z,100299.23
2022-10-23T19:35:16.910Z,100301.31
2022-10-23T19:37:45.793Z,100304.91
2022-10-23T19:40:14.957Z,100304.53
2022-10-23T19:42:44.520Z,100306.84
2022-10-23T19:45:14.338Z,100293.69
2022-10-23T19:47:43.790Z,100287.68
2022-10-23T19:50:13.450Z,100284.24
2022-10-23T19:52:42.666Z,100282.19
2022-10-23T19:55:12.457Z,100283.27
2022-10-23T19:57:44.568Z,100284.68
2022-10-23T20:00:15.124Z,100282.95
2022-10-23T20:02:45.776Z,100283.52
2022-10-23T20:05:15.974Z,100279.51
2022-10-23T20:07:49.776Z,100269.75
2022-10-23T20:10:18.411Z,100267.41
2022-10-23T20:12:56.406Z,100266.11
2022-10-23T20:15:31.739Z,100271.92
2022-10-23T20:18:00.967Z,100263.48
2022-10-23T20:20:29.701Z,100261.64
2022-10-23T20:22:58.420Z,100263.69
2022-10-23T20:25:27.528Z,100261.86
2022-10-23T20:27:55.923Z,100260.45
2022-10-23T20:30:24.373Z,100266.91
2022-10-23T20:32:53.080Z,100263.12
2022-10-23T20:35:21.688Z,100256.95
2022-10-23T20:37:50.067Z,100257.23
2022-10-23T20:40:18.706Z,100256.80
2022-10-23T20:42:47.191Z,100251.25
2022-10-23T20:45:16.096Z,100250.27
2022-10-23T20:47:44.564Z,100245.41
2022-10-23T20:50:13.536Z,100246.71
2022-10-23T20:52:42.305Z,100251.64
2022-10-23T20:55:10.845Z,100251.98
2022-10-23T20:57:39.527Z,100253.74
2022-10-23T21:00:08.482Z,100257.95
2022-10-23T21:02:37.154Z,100259.88
2022-10-23T21:05:09.395Z,100254.94
2022-10-23T21:07:37.884Z,100258.23
2022-10-23T21:10:06.414Z,100260.45
2022-10-23T21:12:35.248Z,100260.13
2022-10-23T21:15:04.283Z,100263.27
2022-10-23T21:19:29.577Z,100261.77
2022-10-23T21:21:57.826Z,100261.20
2022-10-23T21:24:27.016Z,100258.11
2022-10-23T21:26:55.948Z,100259.91
2022-10-23T21:29:24.472Z,100255.57
2022-10-23T21:32:02.113Z,100253.02
2022-10-23T21:34:31.288Z,100253.36
2022-10-23T21:37:12.591Z,100254.98
2022-10-23T21:39:44.777Z,100256.08
2022-10-23T21:42:14.500Z,100261.06
2022-10-23T21:44:43.886Z,100263.35
2022-10-23T21:47:12.242Z,100257.53
2022-10-23T21:49:40.901Z,100251.67
2022-10-23T21:52:10.057Z,100252.65
2022-10-23T21:54:39.434Z,100249.02
2022-10-23T21:57:15.111Z,100244.66
2022-10-23T21:59:44.331Z,100246.64
2022-10-23T22:02:13.565Z,100253.81
2022-10-23T22:04:42.491Z,100254.61
2022-10-23T22:07:15.218Z,100253.80
2022-10-23T22:09:44.731Z,100248.16
2022-10-23T22:12:13.894Z,100250.16
2022-10-23T22:14:43.093Z,100248.75
2022-10-23T22:17:11.851Z,100237.25
2022-10-23T22:19:40.983Z,100228.52
2022-10-23T22:22:10.198Z,100226.57
2022-10-23T22:24:39.122Z,100225.23
2022-10-23T22:27:08.251Z,100227.94
2022-10-23T22:29:37.380Z,100227.14
2022-10-23T22:32:06.548Z,100229.52
2022-10-23T22:34:51.740Z,100233.79
2022-10-23T22:37:21.331Z,100228.20
2022-10-23T22:39:53.576Z,100227.16
2022-10-23T22:42:22.691Z,100227.02
2022-10-23T22:44:51.589Z,100227.52
2022-10-23T22:47:20.609Z,100226.77
2022-10-23T22:49:49.412Z,100224.05
2022-10-23T22:52:17.916Z,100224.48
2022-10-23T22:54:48.589Z,100222.54
2022-10-23T22:57:17.541Z,100229.75
2022-10-23T22:59:46.075Z,100238.23
2022-10-23T23:02:14.998Z,100238.45
2022-10-23T23:04:43.658Z,100241.16
2022-10-23T23:07:13.373Z,100249.99
2022-10-23T23:09:44.419Z,100253.00
2022-10-23T23:12:14.736Z,100253.88
2022-10-23T23:14:44.128Z,100246.98
2022-10-23T23:17:13.347Z,100241.22
2022-10-23T23:19:42.066Z,100233.27
2022-10-23T23:22:10.683Z,100226.05
2022-10-23T23:24:39.356Z,100226.11
2022-10-23T23:27:08.090Z,100224.77
2022-10-23T23:29:37.193Z,100223.75
2022-10-23T23:32:06.601Z,100223.39
2022-10-23T23:34:35.588Z,100226.41
2022-10-23T23:37:04.046Z,100222.39
2022-10-23T23:39:33.119Z,100225.73
2022-10-23T23:42:02.324Z,100230.91
2022-10-23T23:44:31.333Z,100231.00
2022-10-23T23:47:00.738Z,100227.10
2022-10-23T23:49:29.794Z,100227.13
2022-10-23T23:51:59.248Z,100222.94
2022-10-23T23:54:28.282Z,100226.42
2022-10-23T23:57:00.351Z,100223.59
2022-10-23T23:59:29.569Z,100219.17
